Time;durP1;ratioP1;P1;durP2;ratioP2;P2;SDS_P1;SDS_P2;PMS_P1;PMS_P2;Temp;Humidity;BMP_temperature;BMP_pressure;BME280_temperature;BME280_humidity;BME280_pressure;Samples;Min_cycle;Max_cycle;Signal;HPM_P1;HPM_P2
2021/12/26 00:00:59;;;;;;;4.50;2.38;;;-6.50;89.80;;;;;;5063965;28;20076;-76
2021/12/26 00:03:29;;;;;;;5.75;2.00;;;-6.60;88.90;;;;;;5060577;28;20460;-76
2021/12/26 00:05:57;;;;;;;4.40;2.00;;;-6.70;99.90;;;;;;5063572;28;20036;-74
2021/12/26 00:08:24;;;;;;;159.63;9.80;;;;;;;;;;5041540;28;20529;-74
2021/12/26 00:10:51;;;;;;;4.03;2.25;;;;;;;;;;5064245;28;20115;-74
2021/12/26 00:13:18;;;;;;;4.72;1.23;;;-6.10;86.00;;;;;;5060963;28;20113;-74
2021/12/26 00:15:45;;;;;;;5.10;2.22;;;;;;;;;;5047734;28;20044;-74
2021/12/26 00:18:11;;;;;;;4.68;2.22;;;;;;;;;;5059331;28;20048;-74
2021/12/26 00:20:38;;;;;;;4.75;2.40;;;-6.20;84.20;;;;;;5061596;28;20040;-74
2021/12/26 00:23:05;;;;;;;4.72;1.67;;;-6.20;99.90;;;;;;5062745;28;20079;-74
2021/12/26 00:25:32;;;;;;;3.65;1.48;;;;;;;;;;5062514;28;20485;-74
2021/12/26 00:27:59;;;;;;;2.97;1.90;;;-6.10;82.20;;;;;;5063645;28;20084;-74
2021/12/26 00:30:25;;;;;;;3.83;1.92;;;;;;;;;;5052580;28;20082;-74
2021/12/26 00:32:51;;;;;;;3.33;1.95;;;;;;;;;;5054052;28;20040;-74
2021/12/26 00:35:19;;;;;;;2.90;1.60;;;-6.10;81.30;;;;;;5055337;28;20499;-75
2021/12/26 00:37:46;;;;;;;4.03;1.67;;;-6.00;92.30;;;;;;5056685;28;20578;-74
2021/12/26 00:40:14;;;;;;;2.25;1.45;;;-5.90;79.10;;;;;;5057808;28;20051;-74
2021/12/26 00:42:41;;;;;;;3.70;1.35;;;-5.90;78.00;;;;;;5046873;28;20345;-74
2021/12/26 00:45:08;;;;;;;1.92;1.42;;;-5.70;93.10;;;;;;5057630;28;20033;-77
2021/12/26 00:47:34;;;;;;;4.07;2.38;;;-5.80;98.80;;;;;;5046177;28;20475;-77
2021/12/26 00:50:02;;;;;;;2.00;1.38;;;;;;;;;;5057316;28;20044;-77
2021/12/26 00:52:28;;;;;;;2.50;1.42;;;;;;;;;;5055277;28;20044;-76
2021/12/26 00:54:54;;;;;;;5.28;1.73;;;;;;;;;;5055123;28;20048;-75
2021/12/26 00:57:20;;;;;;;5.38;1.80;;;;;;;;;;5050664;28;20033;-75
2021/12/26 00:59:47;;;;;;;2.20;1.42;;;;;;;;;;5051919;28;20070;-75
2021/12/26 01:02:13;;;;;;;1.88;1.13;;;-5.30;83.40;;;;;;5041409;28;20037;-75
2021/12/26 01:04:39;;;;;;;1.60;1.10;;;;;;;;;;5061851;28;20036;-75
2021/12/26 01:07:13;;;;;;;4.03;1.60;;;-5.20;94.40;;;;;;5062829;28;20036;-77
2021/12/26 01:09:42;;;;;;;3.20;0.98;;;;;;;;;;5046814;28;20424;-77
2021/12/26 01:12:13;;;;;;;2.78;1.35;;;-5.30;66.10;;;;;;5056902;28;20519;-77
2021/12/26 01:14:47;;;;;;;3.13;1.23;;;-5.30;94.80;;;;;;5079747;28;20091;-77
2021/12/26 01:17:17;;;;;;;3.80;1.40;;;;;;;;;;5061421;28;20055;-77
2021/12/26 01:19:48;;;;;;;2.38;1.20;;;;;;;;;;5061410;28;20474;-77
2021/12/26 01:22:15;;;;;;;2.85;1.33;;;;;;;;;;5059213;28;20047;-78
2021/12/26 01:24:42;;;;;;;1.58;0.85;;;;;;;;;;5058473;28;20474;-75
2021/12/26 01:27:08;;;;;;;2.55;0.82;;;;;;;;;;5056753;28;20055;-76
2021/12/26 01:29:35;;;;;;;3.53;1.40;;;;;;;;;;5060479;28;20055;-76
2021/12/26 01:32:05;;;;;;;1.42;0.98;;;-6.00;96.90;;;;;;5057224;28;20513;-76
2021/12/26 01:34:32;;;;;;;1.05;0.75;;;;;;;;;;5059106;28;20093;-77
2021/12/26 01:36:59;;;;;;;1.00;0.95;;;;;;;;;;5057719;28;20048;-76
2021/12/26 01:39:26;;;;;;;2.72;1.08;;;;;;;;;;5044458;28;20223;-76
2021/12/26 01:41:53;;;;;;;2.15;1.05;;;-6.10;84.20;;;;;;5054059;28;20103;-78
2021/12/26 01:44:19;;;;;;;1.17;0.82;;;;;;;;;;5039531;28;20188;-79
2021/12/26 01:46:48;;;;;;;1.48;1.00;;;-6.30;72.60;;;;;;5051431;28;20111;-76
2021/12/26 01:49:17;;;;;;;2.67;0.85;;;-6.30;72.00;;;;;;5061651;28;20063;-76
2021/12/26 01:51:45;;;;;;;4.22;1.40;;;;;;;;;;5057571;28;20062;-76
2021/12/26 01:54:13;;;;;;;1.83;1.30;;;-6.10;70.70;;;;;;5053362;28;20637;-76
2021/12/26 01:56:41;;;;;;;2.47;0.90;;;;;;;;;;5051602;28;20473;-76
2021/12/26 01:59:11;;;;;;;1.42;0.82;;;-6.10;96.70;;;;;;5049826;28;20107;-77
2021/12/26 02:01:37;;;;;;;1.83;1.27;;;;;;;;;;5052168;28;20036;-76
2021/12/26 02:04:04;;;;;;;1.65;0.90;;;;;;;;;;5059410;28;20041;-77
2021/12/26 02:06:31;;;;;;;1.55;0.95;;;;;;;;;;5061320;28;20040;-77
2021/12/26 02:08:57;;;;;;;3.13;1.20;;;-6.10;87.00;;;;;;5041798;28;20040;-77
2021/12/26 02:11:23;;;;;;;2.80;1.38;;;;;;;;;;5055914;28;20423;-77
2021/12/26 02:13:49;;;;;;;2.17;1.00;;;-6.10;95.70;;;;;;5059727;28;20242;-77
2021/12/26 02:16:15;;;;;;;2.15;1.10;;;;;;;;;;5060846;28;20098;-77
2021/12/26 02:18:42;;;;;;;1.73;1.00;;;;;;;;;;5042951;28;20803;-77
2021/12/26 02:21:29;;;;;;;2.63;1.08;;;;;;;;;;5049697;28;20045;-76
2021/12/26 02:24:23;;;;;;;3.47;1.20;;;-5.80;62.60;;;;;;5038560;28;20098;-77
2021/12/26 02:29:34;;;;;;;2.22;1.27;;;-5.70;62.80;;;;;;5060807;28;20189;-76
2021/12/26 02:32:00;;;;;;;1.30;0.80;;;-5.80;93.00;;;;;;5032036;28;20041;-76
2021/12/26 02:34:26;;;;;;;1.92;1.05;;;;;;;;;;5061151;28;20052;-76
2021/12/26 02:36:52;;;;;;;1.30;0.80;;;;;;;;;;5043572;28;20036;-76
2021/12/26 02:39:18;;;;;;;1.90;1.10;;;;;;;;;;5055311;28;20127;-76
2021/12/26 02:41:44;;;;;;;2.85;1.33;;;;;;;;;;5039463;28;20072;-76
2021/12/26 02:44:10;;;;;;;4.05;1.17;;;-5.80;93.70;;;;;;5060514;28;20066;-76
2021/12/26 02:46:36;;;;;;;1.88;1.02;;;-5.90;72.10;;;;;;5056422;28;20041;-76
2021/12/26 02:49:03;;;;;;;2.47;1.38;;;;;;;;;;5052279;28;20618;-76
2021/12/26 02:51:29;;;;;;;2.92;1.17;;;;;;;;;;5030865;28;20407;-76
2021/12/26 02:53:55;;;;;;;1.85;0.95;;;-5.70;93.50;;;;;;5042626;28;20043;-76
2021/12/26 02:56:22;;;;;;;2.25;1.00;;;;;;;;;;5041959;28;20040;-76
2021/12/26 02:58:47;;;;;;;2.78;0.73;;;-6.00;93.80;;;;;;5038922;28;20032;-76
2021/12/26 03:01:22;;;;;;;2.95;0.85;;;;;;;;;;5060903;28;20047;-76
2021/12/26 03:03:48;;;;;;;1.92;0.90;;;;;;;;;;5039965;28;20114;-76
2021/12/26 03:06:22;;;;;;;1.20;0.80;;;;;;;;;;5048119;28;20048;-76
2021/12/26 03:08:51;;;;;;;2.28;1.08;;;;;;;;;;5040603;28;20134;-76
2021/12/26 03:11:17;;;;;;;2.35;0.80;;;;;;;;;;5049699;28;20044;-76
2021/12/26 03:13:44;;;;;;;2.65;0.68;;;0.10;72.80;;;;;;5056780;28;20534;-76
2021/12/26 03:16:10;;;;;;;2.83;1.10;;;-7.50;67.10;;;;;;5036175;28;20490;-76
2021/12/26 03:18:36;;;;;;;1.92;1.33;;;;;;;;;;5041016;28;20040;-76
2021/12/26 03:21:03;;;;;;;3.47;1.40;;;-6.20;68.40;;;;;;5038168;28;20048;-76
2021/12/26 03:23:30;;;;;;;2.10;1.00;;;-6.10;89.90;;;;;;5042725;28;20048;-76
2021/12/26 03:25:57;;;;;;;1.38;1.25;;;;;;;;;;5049664;28;20424;-76
2021/12/26 03:28:24;;;;;;;2.17;1.00;;;;;;;;;;5038182;28;20048;-76
2021/12/26 03:30:51;;;;;;;3.28;1.48;;;-6.30;86.80;;;;;;5044717;28;20225;-76
2021/12/26 03:33:17;;;;;;;2.83;0.75;;;;;;;;;;5040241;28;20539;-76
2021/12/26 03:35:43;;;;;;;3.08;1.42;;;;;;;;;;5056149;28;20044;-76
2021/12/26 03:38:11;;;;;;;3.25;1.30;;;-6.40;86.00;;;;;;5041225;28;20052;-76
2021/12/26 03:40:37;;;;;;;1.88;1.10;;;;;;;;;;5053807;28;20037;-77
2021/12/26 03:43:04;;;;;;;2.33;0.90;;;;;;;;;;5057134;28;20045;-76
2021/12/26 03:45:31;;;;;;;1.67;1.20;;;;;;;;;;5039919;28;20032;-76
2021/12/26 03:47:57;;;;;;;1.10;0.95;;;-6.10;95.00;;;;;;5041018;28;20456;-76
2021/12/26 03:50:24;;;;;;;3.35;1.30;;;;;;;;;;5038922;28;20041;-77
2021/12/26 03:52:50;;;;;;;5.40;1.10;;;;;;;;;;5033780;28;20051;-77
2021/12/26 03:55:17;;;;;;;1.10;0.85;;;;;;;;;;5040127;28;20142;-77
2021/12/26 03:57:43;;;;;;;2.20;1.15;;;;;;;;;;5056844;28;20049;-76
2021/12/26 04:00:10;;;;;;;2.17;0.88;;;-6.30;65.90;;;;;;5035605;28;20607;-76
2021/12/26 04:02:36;;;;;;;1.63;1.13;;;;;;;;;;5057261;28;20102;-76
2021/12/26 04:05:03;;;;;;;1.35;0.90;;;;;;;;;;5058944;28;20470;-76
2021/12/26 04:07:29;;;;;;;2.53;1.10;;;;;;;;;;5057819;28;20060;-76
2021/12/26 04:09:55;;;;;;;3.33;1.38;;;;;;;;;;5034271;28;20129;-76
2021/12/26 04:12:21;;;;;;;2.92;1.13;;;-6.50;78.50;;;;;;5061739;28;20092;-76
2021/12/26 04:14:47;;;;;;;2.25;0.98;;;;;;;;;;5063295;28;20499;-77
2021/12/26 04:17:12;;;;;;;2.50;1.30;;;-6.30;83.30;;;;;;5046102;28;20051;-76
2021/12/26 04:19:38;;;;;;;3.05;1.10;;;;;;;;;;5040065;28;20032;-76
2021/12/26 04:22:08;;;;;;;1.50;1.00;;;;;;;;;;5064102;28;20041;-76
2021/12/26 04:24:34;;;;;;;3.15;1.33;;;;;;;;;;5046418;28;20081;-75
2021/12/26 04:27:00;;;;;;;2.15;0.95;;;;;;;;;;5046271;28;20044;-76
2021/12/26 04:29:26;;;;;;;3.45;0.80;;;;;;;;;;5043572;28;20048;-75
2021/12/26 04:31:52;;;;;;;2.88;1.30;;;;;;;;;;5040845;28;20044;-76
2021/12/26 04:34:18;;;;;;;2.80;1.55;;;-4.00;64.00;;;;;;5047020;28;20047;-76
2021/12/26 04:36:44;;;;;;;1.42;0.88;;;;;;;;;;5044613;28;20804;-76
2021/12/26 04:39:11;;;;;;;3.00;1.08;;;;;;;;;;5057732;28;20477;-76
2021/12/26 04:41:37;;;;;;;1.42;1.02;;;;;;;;;;5043280;28;20342;-76
2021/12/26 04:44:03;;;;;;;3.08;1.20;;;-2.50;67.00;;;;;;5057112;28;20090;-77
2021/12/26 04:46:29;;;;;;;1.50;1.17;;;-6.30;94.60;;;;;;5057410;28;20048;-77
2021/12/26 04:48:55;;;;;;;3.50;1.20;;;;;;;;;;5056454;28;20052;-77
2021/12/26 04:51:21;;;;;;;1.73;1.25;;;;;;;;;;5056185;28;20465;-77
2021/12/26 04:53:47;;;;;;;3.95;1.38;;;;;;;;;;5061802;28;20605;-77
2021/12/26 04:56:13;;;;;;;3.40;1.60;;;-6.10;80.10;;;;;;5062613;28;20396;-77
2021/12/26 04:58:39;;;;;;;4.28;1.52;;;;;;;;;;5062412;28;20361;-77
2021/12/26 05:01:05;;;;;;;1.05;0.65;;;;;;;;;;5063442;28;20102;-77
2021/12/26 05:03:32;;;;;;;3.33;1.23;;;;;;;;;;5040125;28;20554;-76
2021/12/26 05:05:58;;;;;;;2.90;1.10;;;;;;;;;;5062090;28;20082;-77
2021/12/26 05:08:25;;;;;;;1.73;1.00;;;;;;;;;;5056516;28;20125;-77
2021/12/26 05:10:51;;;;;;;1.20;0.88;;;;;;;;;;5059386;28;20463;-77
2021/12/26 05:13:17;;;;;;;2.08;1.40;;;;;;;;;;5061341;28;20131;-77
2021/12/26 05:15:43;;;;;;;2.13;1.33;;;;;;;;;;5059382;28;20051;-77
2021/12/26 05:18:12;;;;;;;2.08;1.20;;;-6.30;66.80;;;;;;5062670;28;20053;-77
2021/12/26 05:20:38;;;;;;;2.40;0.80;;;;;;;;;;5060544;28;20051;-77
2021/12/26 05:23:04;;;;;;;1.42;0.90;;;;;;;;;;5053707;28;20036;-77
2021/12/26 05:25:30;;;;;;;4.15;1.17;;;;;;;;;;5067216;28;20032;-77
2021/12/26 05:27:57;;;;;;;2.38;1.17;;;;;;;;;;5061136;28;20630;-77
2021/12/26 05:30:24;;;;;;;1.77;1.17;;;;;;;;;;5061143;28;20536;-77
2021/12/26 05:32:51;;;;;;;2.05;1.23;;;;;;;;;;5044487;28;20490;-77
2021/12/26 05:35:17;;;;;;;1.85;0.95;;;;;;;;;;5043389;28;20040;-77
2021/12/26 05:37:44;;;;;;;4.07;1.20;;;-6.70;69.70;;;;;;5038641;28;20053;-77
2021/12/26 05:40:11;;;;;;;4.07;1.05;;;;;;;;;;5064151;28;20526;-77
2021/12/26 05:42:37;;;;;;;1.40;0.93;;;-6.80;95.70;;;;;;5061337;28;20067;-77
2021/12/26 05:45:04;;;;;;;4.32;0.82;;;;;;;;;;5042664;28;20527;-77
2021/12/26 05:47:31;;;;;;;2.10;1.10;;;-6.80;94.40;;;;;;5061269;28;20055;-76
2021/12/26 05:49:58;;;;;;;3.17;1.15;;;;;;;;;;5061345;28;20089;-76
2021/12/26 05:52:24;;;;;;;1.20;1.10;;;;;;;;;;5057949;28;20280;-76
2021/12/26 05:54:50;;;;;;;2.65;1.30;;;-6.70;96.60;;;;;;5040525;28;20075;-77
2021/12/26 05:57:16;;;;;;;2.05;1.20;;;;;;;;;;5041261;28;20472;-77
2021/12/26 05:59:42;;;;;;;2.42;1.45;;;;;;;;;;5055326;28;20036;-77
2021/12/26 06:02:08;;;;;;;1.70;1.00;;;-6.50;73.50;;;;;;5038416;28;20043;-77
2021/12/26 06:04:34;;;;;;;3.38;1.27;;;;;;;;;;5057037;28;20036;-77
2021/12/26 06:07:01;;;;;;;3.80;1.40;;;;;;;;;;5046892;28;20074;-77
2021/12/26 06:09:27;;;;;;;2.10;1.02;;;;;;;;;;5045155;28;20044;-77
2021/12/26 06:11:53;;;;;;;2.03;1.02;;;;;;;;;;5059433;28;20458;-77
2021/12/26 06:14:19;;;;;;;1.50;0.80;;;;;;;;;;5055534;28;20113;-77
2021/12/26 06:16:45;;;;;;;2.25;1.20;;;;;;;;;;5061001;28;20131;-77
2021/12/26 06:19:12;;;;;;;4.60;1.40;;;;;;;;;;5053936;28;20045;-77
2021/12/26 06:21:38;;;;;;;1.55;1.13;;;;;;;;;;5057343;28;20097;-77
2021/12/26 06:24:04;;;;;;;2.30;1.25;;;;;;;;;;5062068;28;20040;-77
2021/12/26 06:26:30;;;;;;;2.05;1.23;;;;;;;;;;5051707;28;20415;-78
2021/12/26 06:28:57;;;;;;;2.97;1.17;;;;;;;;;;5052151;28;20041;-78
2021/12/26 06:31:23;;;;;;;3.28;1.17;;;;;;;;;;5035776;28;20044;-77
2021/12/26 06:33:49;;;;;;;2.97;1.08;;;-6.30;94.10;;;;;;5053790;28;20139;-77
2021/12/26 06:36:16;;;;;;;3.05;1.40;;;;;;;;;;5061235;28;20083;-77
2021/12/26 06:38:43;;;;;;;1.83;1.20;;;;;;;;;;5044141;28;20143;-77
2021/12/26 06:41:12;;;;;;;3.00;1.20;;;;;;;;;;5043593;28;20036;-77
2021/12/26 06:43:38;;;;;;;2.00;1.08;;;;;;;;;;5051771;28;20263;-78
2021/12/26 06:46:05;;;;;;;1.48;1.23;;;;;;;;;;5055677;28;20040;-78
2021/12/26 06:48:32;;;;;;;3.70;1.35;;;;;;;;;;5043001;28;20147;-77
2021/12/26 06:50:58;;;;;;;1.80;0.98;;;;;;;;;;5061567;28;20043;-77
2021/12/26 06:53:24;;;;;;;2.75;1.70;;;;;;;;;;5060432;28;20044;-77
2021/12/26 06:55:50;;;;;;;1.35;0.93;;;-6.50;95.40;;;;;;5043241;28;20434;-77
2021/12/26 06:58:17;;;;;;;2.05;1.00;;;;;;;;;;5060720;28;20059;-77
2021/12/26 07:00:43;;;;;;;2.33;1.15;;;;;;;;;;5035251;28;20052;-77
2021/12/26 07:03:10;;;;;;;2.65;0.90;;;;;;;;;;5034834;28;20041;-76
2021/12/26 07:05:36;;;;;;;1.95;1.10;;;;;;;;;;5047323;28;20541;-76
2021/12/26 07:08:03;;;;;;;2.05;1.40;;;;;;;;;;5055339;28;20049;-76
2021/12/26 07:10:29;;;;;;;2.90;1.38;;;;;;;;;;5049170;28;20040;-77
2021/12/26 07:12:56;;;;;;;1.40;1.00;;;;;;;;;;5042043;28;20515;-76
2021/12/26 07:15:22;;;;;;;2.80;1.30;;;;;;;;;;5040071;28;20554;-76
2021/12/26 07:17:48;;;;;;;2.10;1.30;;;;;;;;;;5046194;28;20316;-77
2021/12/26 07:20:15;;;;;;;2.30;1.38;;;;;;;;;;5047474;28;20036;-76
2021/12/26 07:22:42;;;;;;;1.83;1.05;;;-6.30;64.50;;;;;;5049127;28;20041;-77
2021/12/26 07:25:09;;;;;;;3.40;1.58;;;-4.10;66.00;;;;;;5053201;28;20040;-77
2021/12/26 07:27:35;;;;;;;2.30;1.05;;;;;;;;;;5054460;28;20472;-77
2021/12/26 07:30:03;;;;;;;3.53;1.70;;;;;;;;;;5037127;28;20163;-77
2021/12/26 07:32:30;;;;;;;1.85;1.42;;;;;;;;;;5037635;28;20136;-77
2021/12/26 07:34:57;;;;;;;2.08;1.23;;;;;;;;;;5047751;28;20351;-77
2021/12/26 07:37:23;;;;;;;10.80;1.92;;;;;;;;;;5048559;28;20084;-80
2021/12/26 07:39:50;;;;;;;2.13;1.25;;;;;;;;;;5058945;28;20518;-80
2021/12/26 07:42:16;;;;;;;2.50;1.38;;;;;;;;;;5054807;28;20040;-79
2021/12/26 07:44:43;;;;;;;8.93;1.50;;;;;;;;;;5060877;28;20074;-80
2021/12/26 07:47:14;;;;;;;2.22;1.40;;;;;;;;;;5059984;28;20045;-77
2021/12/26 07:49:41;;;;;;;3.08;1.20;;;;;;;;;;5062176;28;20118;-77
2021/12/26 07:52:13;;;;;;;4.13;1.75;;;;;;;;;;5065166;28;20044;-78
2021/12/26 07:54:39;;;;;;;4.50;1.83;;;;;;;;;;5062245;28;20044;-77
2021/12/26 07:57:06;;;;;;;5.78;1.20;;;;;;;;;;5044462;28;20106;-78
2021/12/26 07:59:33;;;;;;;3.20;1.65;;;;;;;;;;5058716;28;20285;-77
2021/12/26 08:01:59;;;;;;;2.40;1.42;;;;;;;;;;5061763;28;20080;-78
2021/12/26 08:04:25;;;;;;;3.95;1.30;;;;;;;;;;5061404;28;20032;-77
2021/12/26 08:06:53;;;;;;;1.55;1.17;;;;;;;;;;5062931;28;20627;-78
2021/12/26 08:09:19;;;;;;;2.33;1.30;;;;;;;;;;5064420;28;20044;-78
2021/12/26 08:11:45;;;;;;;2.60;1.35;;;;;;;;;;5062479;28;20072;-77
2021/12/26 08:14:11;;;;;;;3.22;1.40;;;;;;;;;;5046834;28;20061;-77
2021/12/26 08:16:40;;;;;;;2.88;1.77;;;;;;;;;;5063358;28;20691;-78
2021/12/26 08:19:07;;;;;;;2.88;1.40;;;;;;;;;;5063850;28;20631;-78
2021/12/26 08:21:33;;;;;;;3.85;1.60;;;;;;;;;;5056674;28;20041;-77
2021/12/26 08:23:59;;;;;;;1.75;0.95;;;;;;;;;;5046110;28;20372;-78
2021/12/26 08:26:25;;;;;;;2.47;1.42;;;;;;;;;;5058589;28;20048;-78
2021/12/26 08:28:52;;;;;;;2.47;1.58;;;;;;;;;;5059484;28;20406;-78
2021/12/26 08:31:20;;;;;;;4.43;1.52;;;;;;;;;;5063335;28;20096;-78
2021/12/26 08:33:46;;;;;;;3.75;1.42;;;;;;;;;;5061054;28;20059;-77
2021/12/26 08:36:13;;;;;;;4.35;1.48;;;;;;;;;;5057651;28;20171;-77
2021/12/26 08:38:40;;;;;;;2.33;1.45;;;-4.90;60.00;;;;;;5064076;28;20070;-77
2021/12/26 08:41:07;;;;;;;3.38;1.50;;;;;;;;;;5063146;28;20106;-77
2021/12/26 08:43:33;;;;;;;3.00;1.58;;;;;;;;;;5064035;28;20028;-77
2021/12/26 08:45:59;;;;;;;3.00;1.58;;;;;;;;;;5061801;28;20028;-77
2021/12/26 08:48:26;;;;;;;8.15;1.98;;;;;;;;;;5063251;28;20036;-78
2021/12/26 08:50:55;;;;;;;1.90;1.50;;;;;;;;;;5064943;28;20080;-77
2021/12/26 08:53:26;;;;;;;3.65;1.70;;;-5.00;60.10;;;;;;5033650;28;20401;-77
2021/12/26 08:55:52;;;;;;;2.17;1.52;;;-4.70;86.70;;;;;;5062757;28;20097;-77
2021/12/26 08:58:18;;;;;;;3.83;1.63;;;;;;;;;;5060918;28;20036;-77
2021/12/26 09:00:45;;;;;;;2.28;1.60;;;;;;;;;;5062243;28;20639;-77
2021/12/26 09:03:11;;;;;;;7.32;1.67;;;;;;;;;;5050142;28;20128;-77
2021/12/26 09:05:37;;;;;;;3.05;1.65;;;;;;;;;;5045568;28;20108;-76
2021/12/26 09:08:04;;;;;;;3.25;1.67;;;;;;;;;;5057667;28;20040;-76
2021/12/26 09:10:30;;;;;;;2.38;1.60;;;;;;;;;;5052923;28;20179;-76
2021/12/26 09:12:57;;;;;;;2.97;1.63;;;;;;;;;;5060356;28;20044;-75
2021/12/26 09:15:23;;;;;;;3.05;1.67;;;;;;;;;;5059932;28;20048;-74
2021/12/26 09:17:50;;;;;;;1.45;1.00;;;;;;;;;;5061743;28;20044;-76
2021/12/26 09:20:16;;;;;;;2.78;1.27;;;;;;;;;;5060154;28;20129;-76
2021/12/26 09:22:43;;;;;;;2.53;1.42;;;;;;;;;;5058721;28;20040;-79
2021/12/26 09:25:10;;;;;;;3.03;1.85;;;;;;;;;;5057826;28;20079;-81
2021/12/26 09:27:36;;;;;;;4.50;1.80;;;;;;;;;;5063269;28;20055;-80
2021/12/26 09:30:06;;;;;;;4.18;2.05;;;;;;;;;;5060793;28;20657;-79
2021/12/26 09:32:32;;;;;;;3.25;1.58;;;;;;;;;;5061855;28;20119;-79
2021/12/26 09:34:59;;;;;;;2.60;1.55;;;;;;;;;;5060766;28;20059;-80
2021/12/26 09:37:25;;;;;;;2.35;1.58;;;;;;;;;;5059033;28;20045;-80
2021/12/26 09:39:53;;;;;;;2.20;1.50;;;;;;;;;;5057316;28;20515;-80
2021/12/26 09:42:19;;;;;;;2.85;1.52;;;;;;;;;;5045787;28;20517;-80
2021/12/26 09:44:45;;;;;;;3.33;1.48;;;;;;;;;;5061279;28;20048;-79
2021/12/26 09:47:12;;;;;;;2.28;1.20;;;;;;;;;;5059038;28;20098;-79
2021/12/26 09:49:38;;;;;;;3.25;1.83;;;;;;;;;;5058830;28;20037;-81
2021/12/26 09:52:05;;;;;;;2.50;1.38;;;;;;;;;;5044092;28;20474;-79
2021/12/26 09:54:32;;;;;;;4.00;2.05;;;;;;;;;;5057991;28;20051;-79
2021/12/26 09:56:58;;;;;;;3.38;1.80;;;;;;;;;;5047957;28;20412;-79
2021/12/26 09:59:27;;;;;;;3.20;1.88;;;;;;;;;;5064124;28;20044;-77
2021/12/26 10:01:54;;;;;;;3.10;1.83;;;;;;;;;;5054358;28;20072;-79
2021/12/26 10:04:32;;;;;;;2.88;1.58;;;-1.40;40.00;;;;;;5054548;28;20176;-79
2021/12/26 10:07:05;;;;;;;1.92;1.40;;;-1.20;39.70;;;;;;5053585;28;20082;-79
2021/12/26 10:09:32;;;;;;;2.78;1.98;;;;;;;;;;5054659;28;20049;-79
2021/12/26 10:12:00;;;;;;;4.90;1.60;;;;;;;;;;5056431;28;20404;-79
2021/12/26 10:14:33;;;;;;;4.03;2.00;;;;;;;;;;5040545;28;20147;-79
2021/12/26 10:16:59;;;;;;;3.30;1.80;;;;;;;;;;5055433;28;20063;-78
2021/12/26 10:19:25;;;;;;;3.88;2.30;;;;;;;;;;5059212;28;20419;-79
2021/12/26 10:21:58;;;;;;;4.00;1.98;;;-0.40;37.10;;;;;;5053201;28;20419;-79
2021/12/26 10:24:27;;;;;;;3.55;1.70;;;-0.30;35.10;;;;;;5055078;28;20056;-78
2021/12/26 10:27:04;;;;;;;3.97;2.28;;;-0.40;57.10;;;;;;5052891;28;20040;-78
2021/12/26 10:29:38;;;;;;;3.40;2.03;;;-0.40;37.80;;;;;;5059771;28;20049;-78
2021/12/26 10:32:08;;;;;;;3.90;2.80;;;-0.60;68.40;;;;;;5052782;28;20060;-78
2021/12/26 10:34:35;;;;;;;4.13;1.80;;;;;;;;;;5060774;28;20075;-78
2021/12/26 10:37:03;;;;;;;2.95;1.73;;;;;;;;;;5040715;28;20078;-78
2021/12/26 10:39:37;;;;;;;5.82;2.67;;;-0.40;69.80;;;;;;5043341;28;20044;-78
2021/12/26 10:42:13;;;;;;;2.93;1.77;;;-0.40;36.30;;;;;;5032274;28;20040;-78
2021/12/26 10:44:51;;;;;;;4.40;1.98;;;-0.40;40.10;;;;;;5043857;28;20036;-78
2021/12/26 10:47:20;;;;;;;5.50;2.30;;;0.30;37.30;;;;;;5058103;28;20047;-78
2021/12/26 10:50:24;;;;;;;4.80;1.98;;;0.10;38.40;;;;;;5041210;28;20036;-78
2021/12/26 10:52:58;;;;;;;4.95;2.53;;;0.10;52.50;;;;;;5032224;28;20052;-78
2021/12/26 10:55:47;;;;;;;5.32;2.58;;;0.20;39.40;;;;;;5053383;28;20115;-78
2021/12/26 10:58:18;;;;;;;2.92;1.98;;;0.10;36.70;;;;;;5055478;28;20415;-78
2021/12/26 11:00:49;;;;;;;4.00;2.05;;;0.40;71.10;;;;;;5039449;28;20094;-78
2021/12/26 11:03:27;;;;;;;4.07;2.00;;;0.40;51.80;;;;;;5058433;28;20051;-78
2021/12/26 11:05:59;;;;;;;3.67;2.20;;;0.40;36.50;;;;;;5060982;28;20340;-78
2021/12/26 11:08:39;;;;;;;3.55;2.03;;;0.40;36.50;;;;;;5056938;28;20054;-78
2021/12/26 11:11:23;;;;;;;2.65;1.75;;;0.30;38.50;;;;;;5047887;28;20097;-78
2021/12/26 11:13:50;;;;;;;4.13;2.22;;;0.20;55.10;;;;;;5059277;28;20068;-78
2021/12/26 11:16:16;;;;;;;2.63;1.98;;;;;;;;;;5043135;28;20044;-78
2021/12/26 11:18:42;;;;;;;5.30;1.92;;;;;;;;;;5059199;28;20036;-78
2021/12/26 11:21:13;;;;;;;4.50;2.55;;;0.60;39.50;;;;;;5042521;28;20044;-78
2021/12/26 11:23:41;;;;;;;3.97;2.47;;;0.50;39.00;;;;;;5058361;28;20075;-78
2021/12/26 11:26:08;;;;;;;3.63;2.53;;;;;;;;;;5056957;28;20109;-78
2021/12/26 11:28:40;;;;;;;3.25;1.88;;;0.50;38.80;;;;;;5039776;28;20915;-78
2021/12/26 11:31:11;;;;;;;5.15;2.45;;;0.70;41.00;;;;;;5053259;28;20451;-78
2021/12/26 11:33:38;;;;;;;5.35;2.50;;;;;;;;;;5055730;28;20059;-78
2021/12/26 11:36:08;;;;;;;4.20;2.53;;;0.30;38.80;;;;;;5037922;28;20106;-78
2021/12/26 11:38:34;;;;;;;4.18;2.13;;;;;;;;;;5041453;28;20036;-79
2021/12/26 11:41:37;;;;;;;3.78;2.20;;;0.90;40.90;;;;;;5058782;28;20068;-78
2021/12/26 11:44:25;;;;;;;5.40;2.17;;;0.90;40.50;;;;;;5020757;28;20125;-77
2021/12/26 11:47:09;;;;;;;4.18;2.33;;;0.90;39.50;;;;;;5054805;28;20079;-77
2021/12/26 11:50:01;;;;;;;3.92;2.25;;;;;;;;;;5040723;28;20077;-77
2021/12/26 11:52:44;;;;;;;4.70;2.17;;;1.50;41.50;;;;;;5054525;28;20040;-78
2021/12/26 11:55:23;;;;;;;5.75;2.22;;;1.50;73.50;;;;;;5055849;28;20048;-75
2021/12/26 11:58:30;;;;;;;4.22;2.65;;;1.30;41.20;;;;;;5048300;28;20056;-75
2021/12/26 12:00:59;;;;;;;3.85;2.00;;;1.60;41.20;;;;;;5032525;28;20045;-75
2021/12/26 12:03:31;;;;;;;3.38;2.17;;;1.50;74.20;;;;;;5047733;28;20045;-76
2021/12/26 12:05:58;;;;;;;6.25;2.67;;;1.50;41.30;;;;;;5054401;28;20048;-76
2021/12/26 12:08:24;;;;;;;3.33;1.90;;;;;;;;;;5039289;28;20732;-76
2021/12/26 12:10:54;;;;;;;4.13;2.22;;;1.40;41.70;;;;;;5055686;28;20036;-75
2021/12/26 12:13:23;;;;;;;4.10;2.08;;;1.80;68.60;;;;;;5047504;28;20061;-76
2021/12/26 12:16:06;;;;;;;4.32;2.08;;;1.80;41.20;;;;;;5051828;28;20473;-76
2021/12/26 12:18:36;;;;;;;3.78;2.40;;;2.20;60.10;;;;;;5056569;28;20048;-76
2021/12/26 12:21:16;;;;;;;3.78;1.75;;;2.20;41.70;;;;;;5053834;28;20040;-77
2021/12/26 12:24:09;;;;;;;4.30;2.42;;;1.80;41.90;;;;;;5053741;28;20098;-76
2021/12/26 12:26:50;;;;;;;3.50;2.33;;;1.60;42.10;;;;;;5053572;28;20106;-76
2021/12/26 12:29:28;;;;;;;4.03;1.92;;;1.50;44.10;;;;;;5037561;28;20127;-76
2021/12/26 12:32:09;;;;;;;3.10;1.83;;;1.40;50.80;;;;;;5042206;28;20037;-79
2021/12/26 12:34:55;;;;;;;2.90;2.00;;;1.40;42.90;;;;;;5063405;28;20482;-79
2021/12/26 12:37:41;;;;;;;3.13;1.80;;;1.20;43.20;;;;;;5045165;28;20446;-80
2021/12/26 12:40:29;;;;;;;3.50;2.17;;;1.20;42.10;;;;;;5061408;28;20036;-79
2021/12/26 12:43:13;;;;;;;2.08;1.63;;;1.20;45.30;;;;;;5056056;28;20477;-80
2021/12/26 12:45:55;;;;;;;5.60;2.00;;;1.30;43.40;;;;;;5059873;28;20063;-80
2021/12/26 12:48:47;;;;;;;3.50;1.83;;;0.40;45.00;;;;;;5057682;28;20044;-79
2021/12/26 12:51:15;;;;;;;5.18;2.63;;;0.30;78.70;;;;;;5049967;28;20119;-80
2021/12/26 12:53:46;;;;;;;4.45;1.92;;;0.90;52.20;;;;;;5058898;28;20040;-79
2021/12/26 12:56:29;;;;;;;3.30;1.98;;;1.30;45.70;;;;;;5061083;28;20059;-79
2021/12/26 12:59:30;;;;;;;3.63;1.98;;;1.80;80.10;;;;;;5061992;28;20411;-79
2021/12/26 13:01:57;;;;;;;3.28;1.52;;;2.20;78.70;;;;;;5042877;28;20106;-78
2021/12/26 13:04:44;;;;;;;3.58;2.03;;;2.40;46.60;;;;;;5060254;28;20142;-79
2021/12/26 13:07:16;;;;;;;2.67;1.73;;;2.40;76.80;;;;;;5043927;28;20561;-79
2021/12/26 13:09:51;;;;;;;5.10;2.97;;;2.10;42.50;;;;;;5057273;28;20612;-78
2021/12/26 13:12:18;;;;;;;3.70;1.90;;;1.90;43.40;;;;;;5038045;28;20083;-79
2021/12/26 13:14:54;;;;;;;5.38;2.72;;;1.90;54.00;;;;;;5059240;28;20071;-79
2021/12/26 13:17:35;;;;;;;3.95;1.98;;;2.00;76.20;;;;;;5055688;28;20040;-79
2021/12/26 13:20:20;;;;;;;4.97;2.25;;;1.90;43.60;;;;;;5042787;28;20518;-79
2021/12/26 13:22:46;;;;;;;3.67;2.20;;;;;;;;;;5058161;28;20696;-79
2021/12/26 13:25:31;;;;;;;5.03;2.60;;;;;;;;;;5043793;28;20060;-79
2021/12/26 13:27:58;;;;;;;3.47;2.20;;;;;;;;;;5045163;28;20395;-78
2021/12/26 13:30:25;;;;;;;2.95;2.17;;;;;;;;;;5041067;28;20040;-79
2021/12/26 13:32:52;;;;;;;2.90;1.90;;;1.90;67.40;;;;;;5061638;28;20515;-78
2021/12/26 13:35:18;;;;;;;5.55;2.85;;;;;;;;;;5043822;28;20407;-78
2021/12/26 13:37:45;;;;;;;4.95;2.30;;;;;;;;;;5037532;28;20411;-78
2021/12/26 13:40:12;;;;;;;4.18;2.08;;;;;;;;;;5060920;28;20744;-78
2021/12/26 13:42:38;;;;;;;3.15;2.00;;;;;;;;;;5059489;28;20436;-78
2021/12/26 13:45:06;;;;;;;5.03;2.25;;;1.80;79.10;;;;;;5042635;28;20044;-78
2021/12/26 13:47:43;;;;;;;4.60;2.33;;;2.10;45.20;;;;;;5054062;28;20127;-78
2021/12/26 13:50:12;;;;;;;3.53;1.70;;;1.60;45.30;;;;;;5062239;28;20548;-78
2021/12/26 13:52:39;;;;;;;3.88;1.63;;;1.70;45.40;;;;;;5053417;28;20161;-77
2021/12/26 13:55:06;;;;;;;5.70;2.20;;;1.60;76.70;;;;;;5060181;28;20089;-78
2021/12/26 13:57:32;;;;;;;3.30;2.03;;;1.70;56.70;;;;;;5054968;28;20124;-76
2021/12/26 14:00:01;;;;;;;3.85;2.05;;;;;;;;;;5046790;28;20086;-76
2021/12/26 14:02:28;;;;;;;3.60;2.22;;;;;;;;;;5056244;28;20036;-76
2021/12/26 14:04:58;;;;;;;3.90;2.45;;;1.60;47.30;;;;;;5045478;28;20407;-77
2021/12/26 14:07:33;;;;;;;4.80;2.88;;;1.50;47.20;;;;;;5053212;28;20045;-77
2021/12/26 14:10:05;;;;;;;9.07;2.53;;;1.50;48.60;;;;;;5058956;28;20052;-77